Date,TemperatureHighF,TemperatureAvgF,TemperatureLowF,DewpointHighF,DewpointAvgF,DewpointLowF,HumidityHigh,HumidityAvg,HumidityLow,PressureMaxIn,PressureMinIn,WindSpeedMaxMPH,WindSpeedAvgMPH,GustSpeedMaxMPH,PrecipitationSumIn
2013-1-1,28.4,21.4,9.1,20.0,4.0,-10.9,73,48,37,30.07,29.80,11,4,23,0.08
2013-1-2,20.5,10.6,1.0,1.3,-9.6,-19.4,55,39,36,30.25,30.04,14,4,25,0.94
2013-1-3,16.7,8.4,0.9,-2.6,-12.0,-19.4,44,38,37,30.29,30.14,7,2,13,0.87
2013-1-4,31.5,23.2,9.7,16.7,5.1,-10.5,58,46,39,30.14,29.92,11,2,22,0.00
2013-1-5,30.6,26.9,19.0,19.9,9.2,2.4,67,47,36,30.42,29.91,14,3,21,0.00
2013-1-6,29.7,24.9,18.5,22.4,13.5,3.8,80,62,52,30.39,30.10,7,1,14,0.00
2013-1-7,30.6,25.6,16.5,26.6,12.6,0.6,85,59,40,30.55,30.10,8,1,17,0.00
2013-1-8,35.8,26.3,15.3,14.4,10.4,1.4,61,51,40,30.53,30.39,16,3,31,0.00
2013-1-9,35.6,30.5,24.6,21.5,16.7,13.3,67,56,48,30.60,30.10,16,2,29,0.24
2013-1-10,39.6,33.9,27.1,28.9,17.3,13.5,84,51,39,30.71,30.11,21,4,35,0.00
2013-1-11,35.4,30.3,24.1,28.4,17.0,12.4,81,58,41,30.71,30.39,14,1,17,0.08
2013-1-12,38.1,35.5,32.9,36.6,32.6,28.0,97,89,81,30.40,30.26,7,1,15,0.08
2013-1-13,39.7,37.3,34.9,39.0,36.4,33.9,97,96,94,30.33,30.10,7,1,15,0.00
2013-1-14,50.4,40.6,33.3,48.8,32.6,19.0,97,76,40,30.39,30.01,9,2,17,0.00
2013-1-15,35.6,32.0,29.3,21.3,15.1,10.3,62,50,40,30.49,30.37,7,1,13,0.16
2013-1-16,29.7,27.8,25.9,23.3,18.8,11.3,81,70,49,30.43,29.95,4,0,7,0.51
2013-1-17,35.4,26.5,15.6,24.2,14.0,-5.0,86,61,37,30.30,29.95,8,2,13,0.55
2013-1-18,17.4,11.8,6.1,-1.5,-10.1,-15.4,43,36,34,30.59,30.23,10,2,18,0.39
2013-1-19,32.2,24.4,10.2,17.9,7.0,-12.1,58,47,35,30.52,30.00,7,1,12,0.00
2013-1-20,42.6,31.9,21.7,23.2,13.7,-2.4,66,48,31,30.00,29.62,18,4,32,0.16
2013-1-21,20.3,18.3,16.5,7.9,6.1,3.9,64,58,57,30.08,29.97,0,0,12,0.16
2013-1-22,19.9,13.9,4.8,8.5,-1.2,-10.8,67,51,34,30.21,29.92,22,2,38,0.79
2013-1-23,6.1,0.0,-3.8,-9.4,-15.0,-18.6,48,48,48,30.32,30.21,10,3,17,0.47
2013-1-24,8.8,1.8,-4.9,-6.9,-13.4,-19.6,48,48,48,30.36,30.21,12,4,20,0.91
2013-1-25,14.4,8.4,1.6,-2.4,-10.1,-13.6,48,43,35,30.45,30.24,12,3,18,1.14
2013-1-26,20.3,12.5,7.5,-3.7,-10.6,-14.8,40,34,31,30.36,30.17,10,2,12,0.28
2013-1-27,21.7,14.0,8.8,-2.7,-9.5,-14.5,36,34,31,30.61,30.32,10,3,17,0.08
2013-1-28,22.1,17.0,11.5,10.9,-0.7,-11.5,70,47,33,30.60,30.25,6,1,12,0.04
2013-1-29,32.2,25.2,15.1,26.8,15.4,4.0,84,66,51,30.39,30.25,8,0,10,0.00
2013-1-30,49.5,38.1,31.1,48.6,36.2,26.8,97,93,84,30.31,29.60,7,1,15,0.24
2013-1-31,55.2,42.8,23.7,54.4,35.1,3.4,97,78,35,29.61,29.00,14,6,25,0.59
2013-2-1,25.7,20.4,13.8,9.7,-0.5,-7.9,55,39,34,30.22,29.61,11,5,21,0.16
2013-2-2,21.6,16.3,10.0,5.4,-3.3,-10.6,56,41,36,30.39,30.22,9,2,15,0.75
2013-2-3,24.6,20.9,15.3,7.8,5.2,3.3,67,51,41,30.22,29.87,6,1,10,0.16
2013-2-4,24.6,19.8,12.2,8.8,-0.9,-12.3,61,41,25,30.04,29.84,17,4,31,0.28
2013-2-5,22.5,15.3,7.7,0.0,-8.0,-16.3,45,34,32,30.21,30.04,12,2,18,0.24
2013-2-6,30.6,22.1,14.2,13.5,4.8,-12.3,65,48,29,30.46,30.09,17,3,24,0.31
2013-2-7,19.0,14.7,10.6,-6.3,-9.9,-13.7,35,32,28,30.73,30.43,12,2,22,0.59
2013-2-8,14.4,11.2,8.2,99.9,-11.0,-14.4,34,34,34,30.73,30.06,12,5,20,1.10
2013-2-9,19.9,15.0,10.4,99.9,-2.7,-12.6,57,40,34,30.35,29.93,16,5,28,0.59
2013-2-10,30.4,18.4,7.2,5.1,-1.2,-9.8,48,42,32,30.57,30.35,11,2,22,0.08
2013-2-11,32.2,24.0,17.8,30.7,13.3,0.5,95,65,45,30.52,29.76,5,0,12,0.08
2013-2-12,37.6,33.8,30.9,32.0,23.5,17.6,97,67,50,29.96,29.73,13,4,25,0.51
2013-2-13,36.9,30.8,26.6,18.2,14.3,11.7,59,50,39,30.00,29.90,11,2,17,0.20
2013-2-14,35.8,30.6,26.6,15.5,12.8,11.0,56,47,38,30.16,29.87,13,1,21,0.00
2013-2-15,42.8,33.2,25.0,20.4,16.4,11.2,60,50,38,30.15,30.05,14,2,21,0.24
2013-2-16,36.7,31.6,24.8,22.3,14.9,1.0,71,51,36,30.12,29.91,11,2,20,0.00
2013-2-17,24.8,19.1,10.8,99.9,1.4,-9.4,61,43,35,29.91,29.50,11,4,20,0.55
2013-2-18,24.7,15.8,7.7,99.9,4.8,-12.2,72,57,39,30.25,29.70,17,6,31,0.47
2013-2-19,37.6,27.4,16.9,29.4,16.7,7.0,81,66,29,30.31,29.72,8,2,17,0.12
2013-2-20,33.4,28.0,20.8,30.7,17.6,6.0,92,66,48,29.86,29.62,9,3,20,0.28
2013-2-21,27.7,22.0,15.8,9.5,4.4,-1.5,64,47,38,30.36,29.83,15,5,24,0.20
2013-2-22,36.9,28.8,19.9,14.7,10.7,6.6,59,47,34,30.58,30.36,12,2,16,0.00
2013-2-23,32.7,30.2,27.5,27.5,21.3,14.5,89,70,54,30.49,30.16,6,0,12,0.00
2013-2-24,30.4,29.2,27.5,27.8,26.0,23.3,91,88,84,30.16,29.94,0,0,0,0.00
2013-2-25,36.9,31.6,25.5,29.5,25.6,19.3,86,79,65,30.40,30.07,10,0,14,0.20
2013-2-26,36.7,33.6,30.4,29.6,26.3,22.3,88,75,57,30.52,30.36,4,0,7,0.28
2013-2-27,32.5,30.1,28.6,31.8,27.8,23.1,97,91,75,30.40,29.82,6,2,12,0.12
2013-2-28,39.6,33.3,28.4,33.8,30.4,27.7,97,89,75,29.82,29.72,5,0,7,0.31
2013-3-1,35.4,32.9,30.2,30.7,26.7,23.1,91,78,64,29.84,29.68,5,0,8,0.04
2013-3-2,39.0,33.1,29.7,26.1,22.6,17.5,78,66,44,29.82,29.77,10,1,15,0.00
2013-3-3,37.9,32.7,28.8,27.1,23.0,17.4,79,68,54,29.81,29.72,11,1,15,0.04
2013-3-4,34.5,29.2,24.6,17.9,14.3,12.4,64,54,42,29.91,29.72,19,5,30,0.00
2013-3-5,41.0,34.2,27.5,27.1,18.9,13.3,74,54,41,30.26,29.91,12,3,21,0.00
2013-3-6,34.0,31.7,28.2,29.9,24.7,18.0,94,76,55,30.40,30.26,15,5,24,0.00
2013-3-7,32.2,29.1,27.1,22.7,17.8,14.6,77,63,50,30.37,30.25,19,6,28,0.00
2013-3-8,44.2,34.4,26.6,22.0,14.0,8.8,82,46,28,30.39,30.19,16,6,29,0.00
2013-3-9,50.5,38.8,31.3,20.5,10.6,4.2,64,33,16,30.54,30.35,11,2,16,0.00
2013-3-10,43.3,34.9,27.7,24.9,19.9,17.5,71,55,36,30.58,30.45,11,2,17,0.00
2013-3-11,47.3,38.0,30.4,30.4,24.2,20.0,86,60,35,30.48,30.28,9,3,14,0.00
2013-3-12,45.1,41.3,37.8,44.3,38.2,29.9,97,89,72,30.28,29.88,9,2,17,0.00
2013-3-13,44.1,38.7,31.6,42.9,29.0,17.4,97,72,39,29.93,29.84,12,2,28,0.00
2013-3-14,33.8,28.2,18.0,21.4,10.9,-3.4,71,49,38,29.96,29.81,13,4,25,0.00
2013-3-15,34.0,23.7,13.6,23.1,4.7,-6.8,78,45,31,29.97,29.77,25,3,33,0.00
2013-3-16,30.9,25.8,19.4,17.8,7.5,2.8,67,47,34,30.08,29.83,22,2,36,0.00
2013-3-17,28.2,21.6,15.1,4.1,0.1,-7.8,52,39,29,30.49,30.05,24,4,40,0.00
2013-3-18,33.4,22.8,10.4,9.9,-1.9,-11.3,44,34,22,30.63,30.41,12,1,21,0.00
2013-3-19,29.3,25.9,21.2,24.6,19.4,9.9,86,77,44,30.41,29.89,9,3,15,0.00
2013-3-20,32.5,26.8,21.6,19.9,14.4,9.9,80,60,41,29.89,29.83,22,3,32,0.00
2013-3-21,35.1,27.5,17.6,11.1,8.2,5.3,60,45,30,29.93,29.76,9,2,14,0.00
2013-3-22,36.3,29.9,24.1,13.3,9.5,7.7,53,42,32,29.85,29.75,19,3,30,0.00
2013-3-23,37.0,29.5,22.6,16.1,12.6,7.4,67,50,35,29.89,29.72,24,6,41,0.12
2013-3-24,43.9,34.6,28.8,16.9,14.7,12.0,56,45,32,29.97,29.87,13,4,20,0.00
2013-3-25,40.6,34.3,29.1,22.9,17.9,14.3,64,51,40,29.96,29.74,12,2,20,0.00
2013-3-26,45.1,36.8,30.7,20.7,14.9,11.3,60,41,28,29.93,29.74,11,3,22,0.00
2013-3-27,47.3,37.5,30.2,27.3,18.5,15.0,71,47,30,30.05,29.89,14,3,23,0.00
2013-3-28,45.0,38.7,35.1,28.9,24.7,19.1,77,59,40,30.17,30.04,10,1,14,0.00
2013-3-29,48.2,41.0,35.8,28.8,23.4,19.1,70,51,37,30.20,30.13,15,2,25,0.00
2013-3-30,49.1,40.4,34.5,25.0,17.3,5.7,64,42,19,30.26,30.16,13,2,20,0.00
2013-3-31,52.0,40.9,30.6,27.3,15.2,9.6,60,36,23,30.26,29.97,12,2,17,0.00
2013-4-1,50.9,38.9,29.7,37.6,27.8,7.8,86,66,37,29.97,29.63,15,3,24,0.00
2013-4-2,33.8,28.5,23.9,9.3,4.6,1.9,42,36,31,30.01,29.86,22,5,39,0.00
2013-4-3,38.3,30.8,23.9,8.9,4.8,0.3,45,34,21,30.25,30.00,21,6,36,0.00
2013-4-4,47.8,36.7,27.7,12.5,7.3,2.7,41,30,19,30.40,30.14,18,5,32,0.04
2013-4-5,50.9,40.0,32.9,18.6,15.5,8.0,52,38,26,30.14,29.82,19,3,47,0.00
2013-4-6,37.2,30.6,23.0,8.0,1.2,-3.4,35,29,19,30.50,30.01,27,5,48,0.00
2013-4-7,50.9,38.5,27.7,24.8,12.0,1.9,53,34,26,30.50,30.10,24,4,41,0.00
2013-4-8,54.3,44.8,36.9,33.6,25.5,20.4,79,49,29,30.28,30.06,18,2,30,0.00
2013-4-9,52.3,44.9,40.5,42.7,34.0,24.7,91,67,47,30.27,30.06,17,2,29,0.00
2013-4-10,52.7,45.1,39.9,45.5,37.8,33.8,93,77,51,30.15,30.05,13,1,26,0.00
2013-4-11,47.5,42.3,37.2,38.9,22.6,9.9,88,49,31,30.32,30.02,10,1,20,0.00
2013-4-12,37.2,31.5,29.1,29.0,19.8,7.2,94,65,32,30.42,30.06,7,2,12,0.00
2013-4-13,45.0,36.5,30.4,33.9,30.1,27.5,95,79,55,30.08,29.95,11,1,20,0.00
2013-4-14,48.9,40.4,34.3,33.7,26.7,20.9,84,60,34,30.38,30.04,19,2,33,0.00
2013-4-15,53.1,42.2,32.0,29.0,23.3,19.3,77,50,27,30.56,30.38,10,2,16,0.00
2013-4-16,61.0,47.1,35.2,49.0,34.3,24.6,86,63,34,30.55,30.13,16,3,28,0.00
2013-4-17,58.6,50.2,41.0,50.0,26.2,16.9,90,42,25,30.52,30.12,9,2,15,0.00
2013-4-18,55.4,45.5,34.2,27.1,20.1,15.1,50,37,27,30.65,30.29,19,2,25,0.00
2013-4-19,70.0,58.8,48.2,57.5,46.2,23.9,88,65,38,30.29,29.74,19,5,29,0.00
2013-4-20,62.2,47.4,37.0,59.0,29.0,9.7,89,53,29,30.34,29.71,11,5,20,0.00
2013-4-21,49.1,39.5,32.0,14.8,10.4,6.9,40,30,19,30.88,30.34,8,2,14,0.00
2013-4-22,50.7,39.9,32.2,23.5,12.7,6.9,69,34,19,30.97,30.81,8,2,12,0.00
2013-4-23,38.5,34.7,30.6,36.8,29.3,22.9,95,81,66,30.81,30.39,5,2,9,0.00
2013-4-24,69.1,52.0,37.9,47.9,40.2,33.4,97,70,27,30.39,29.88,13,3,22,0.00
2013-4-25,57.6,51.9,42.1,44.5,25.4,15.0,68,37,24,30.45,29.87,21,6,36,0.00
2013-4-26,58.3,46.9,36.1,25.9,20.1,15.0,45,35,25,30.61,30.45,13,2,18,0.00
2013-4-27,62.6,50.5,38.7,31.4,24.5,14.5,67,39,16,30.58,30.44,22,3,40,0.00
2013-4-28,66.6,51.9,40.3,29.3,25.4,19.5,56,37,22,30.50,30.37,23,2,41,0.00
2013-4-29,68.0,53.7,42.4,32.7,27.0,24.4,51,37,23,30.41,30.31,14,2,29,0.00
2013-4-30,70.3,58.2,45.3,29.5,25.3,17.3,49,30,17,30.52,30.39,15,2,23,0.00
2013-5-1,72.9,57.6,42.6,25.9,20.0,13.8,34,24,11,30.62,30.52,11,2,18,0.00
2013-5-2,72.9,55.4,42.3,31.9,25.8,19.2,46,33,18,30.67,30.54,6,1,12,0.00
2013-5-3,66.6,51.8,37.8,36.6,30.4,22.9,70,46,29,30.73,30.53,13,2,22,0.00
2013-5-4,68.2,53.2,41.4,39.4,30.7,18.1,79,47,15,30.53,30.40,9,2,17,0.00
2013-5-5,68.4,51.8,37.9,31.1,27.7,25.3,67,43,20,30.50,30.38,22,2,38,0.00
2013-5-6,73.2,55.3,39.4,36.8,30.1,19.3,77,44,14,30.41,30.27,16,2,24,0.00
2013-5-7,77.7,62.2,47.1,48.5,38.4,22.8,81,48,15,30.31,30.20,15,3,29,0.00
2013-5-8,72.5,63.0,54.1,54.5,48.9,41.1,84,63,34,30.35,30.22,18,2,32,0.00
2013-5-9,65.8,57.8,53.8,59.9,53.9,47.9,93,87,53,30.22,30.06,12,0,16,0.00
2013-5-10,72.9,61.7,54.3,58.5,50.6,41.5,96,70,35,30.12,30.04,8,1,14,0.00
2013-5-11,64.2,59.0,54.5,61.1,55.5,49.0,97,88,74,30.05,29.80,15,2,20,0.00
2013-5-12,64.8,57.1,46.0,58.0,42.5,19.5,97,63,32,29.88,29.68,17,3,30,0.00
2013-5-13,52.0,44.8,39.6,25.3,19.9,17.6,50,37,28,30.21,29.88,23,7,45,0.00
2013-5-14,55.9,45.9,36.7,26.1,21.0,16.7,62,39,25,30.22,30.11,12,1,22,0.00
2013-5-15,63.0,48.9,36.3,47.3,28.9,18.9,88,50,24,30.21,29.82,21,2,44,0.00
2013-5-16,70.2,57.2,50.5,49.1,36.8,22.4,93,54,17,29.98,29.73,14,1,21,0.00
2013-5-17,63.7,54.5,46.4,34.9,29.7,24.4,55,40,25,30.38,29.98,22,3,43,0.00
2013-5-18,66.7,55.4,45.9,40.1,34.2,27.6,72,47,25,30.47,30.37,11,1,22,0.00
2013-5-19,58.5,51.5,47.1,48.0,43.7,39.8,88,75,59,30.54,30.38,7,0,14,0.00
2013-5-20,70.5,58.7,50.9,58.0,52.0,48.0,97,80,52,30.38,30.11,15,3,26,0.00
2013-5-21,56.7,53.4,48.7,54.7,50.9,47.1,95,91,80,30.32,30.05,11,0,17,0.00
2013-5-22,55.2,51.5,48.6,54.1,50.3,47.2,96,96,95,30.16,30.08,7,0,9,0.00
2013-5-23,66.2,57.9,49.6,65.3,56.6,48.3,97,96,89,30.10,29.93,13,2,22,0.00
2013-5-24,66.0,60.0,48.2,63.4,55.4,43.0,97,86,64,30.00,29.76,9,2,20,0.00
2013-5-25,48.2,45.4,40.3,45.3,43.0,36.1,95,91,85,30.00,29.87,9,2,17,0.00
2013-5-26,54.3,45.6,39.9,40.4,33.4,27.3,88,65,37,30.18,29.81,13,3,24,0.00
2013-5-27,64.9,51.4,40.1,33.2,28.7,22.4,75,46,20,30.35,30.18,17,3,26,0.00
2013-5-28,70.0,56.4,43.7,35.9,30.3,25.8,63,39,23,30.41,30.33,12,2,20,0.00
2013-5-29,55.8,52.3,48.7,54.1,45.7,31.9,94,80,48,30.33,30.16,4,0,8,0.00
2013-5-30,80.1,67.1,55.8,64.3,54.6,45.6,97,70,31,30.21,30.15,10,3,18,0.00
2013-5-31,88.3,73.8,62.4,60.7,54.3,47.4,88,55,25,30.21,30.05,11,2,17,0.00
2013-6-1,89.4,76.2,66.0,61.8,55.0,44.8,80,52,22,30.08,29.95,9,2,14,0.00
2013-6-2,87.6,76.3,69.3,64.6,59.9,49.6,81,61,28,29.96,29.76,11,3,18,0.00
2013-6-3,75.6,67.6,59.4,60.8,49.2,37.6,88,55,30,29.95,29.82,11,3,20,0.00
2013-6-4,65.8,56.8,50.0,45.1,34.3,28.1,64,44,27,30.25,29.95,21,4,46,0.00
2013-6-5,70.5,57.8,47.5,42.4,33.5,27.2,75,44,22,30.34,30.24,13,2,21,0.00
2013-6-6,69.1,59.9,53.2,44.7,37.4,31.6,64,44,29,30.36,30.26,4,0,8,0.00
2013-6-7,56.1,52.2,49.3,49.6,47.5,43.8,96,84,64,30.28,30.07,4,0,9,0.00
2013-6-8,68.7,57.8,50.0,57.6,51.6,48.7,97,82,51,30.15,29.86,13,2,25,0.00
2013-6-9,74.1,62.5,54.0,53.4,47.3,39.8,88,61,31,30.32,30.14,10,2,17,0.00
2013-6-10,66.0,60.1,54.0,53.2,49.9,45.4,84,70,51,30.36,30.20,7,1,12,0.00
2013-6-11,56.7,54.4,52.5,55.8,52.5,50.2,97,93,84,30.20,29.76,4,0,8,0.00
2013-6-12,60.6,56.7,53.4,55.2,50.6,45.2,95,81,59,29.97,29.72,8,1,16,0.00
2013-6-13,60.6,56.1,51.8,52.1,49.2,45.3,87,78,59,29.97,29.87,7,0,12,0.00
2013-6-14,70.5,60.1,53.2,55.7,48.9,36.4,92,70,29,29.93,29.83,7,0,13,0.00
2013-6-15,73.4,62.1,52.7,47.5,36.0,29.7,67,40,21,30.08,29.92,10,2,20,0.00
2013-6-16,70.3,61.3,53.1,55.4,44.9,36.5,84,57,32,30.08,29.86,7,2,15,0.00
2013-6-17,76.8,64.9,56.5,55.7,50.3,42.0,87,63,31,30.04,29.89,11,2,21,0.00
2013-6-18,62.4,58.9,55.2,54.4,51.0,46.2,85,75,59,30.14,30.00,7,0,12,0.00
2013-6-19,70.9,60.1,52.2,51.3,41.1,32.8,86,53,26,30.33,30.09,7,1,12,0.00
2013-6-20,75.7,61.9,50.5,45.8,38.8,32.0,70,45,24,30.42,30.33,9,2,17,0.00
2013-6-21,80.4,66.1,55.8,48.3,43.3,37.6,70,46,22,30.41,30.34,8,2,14,0.00
2013-6-22,77.9,68.1,61.3,61.4,53.5,43.9,87,61,37,30.37,30.24,7,1,13,0.00
2013-6-23,80.2,69.0,63.1,66.9,63.4,60.2,94,83,54,30.28,30.09,8,1,13,0.00
2013-6-24,85.1,72.9,66.4,66.2,61.7,49.1,93,71,35,30.16,30.01,10,3,17,0.00
2013-6-25,85.3,73.8,68.0,64.2,60.8,54.4,87,66,35,30.05,29.86,12,3,23,0.00
2013-6-26,72.3,67.7,60.6,67.7,64.0,56.7,91,88,78,30.04,29.86,5,0,8,0.00
2013-6-27,67.5,62.2,57.9,65.4,60.1,55.5,95,93,89,30.02,29.95,4,0,7,0.00
2013-6-28,61.3,58.7,55.9,60.5,57.7,55.0,97,96,93,29.96,29.68,5,0,14,0.00
2013-6-29,79.0,67.6,61.0,70.6,61.5,56.3,97,83,47,29.85,29.68,10,2,15,0.00
2013-6-30,78.3,70.1,65.5,70.2,63.9,58.4,95,82,57,30.09,29.84,11,2,16,0.00
2013-7-1,72.3,69.1,66.2,70.0,67.0,63.2,96,93,89,30.24,30.08,7,1,12,0.00
2013-7-2,69.1,62.7,59.2,68.2,61.5,57.5,97,96,94,30.39,30.21,6,0,10,0.00
2013-7-3,83.3,69.2,59.4,70.7,63.4,58.5,97,84,46,30.39,30.27,8,2,13,0.00
2013-7-4,87.3,76.8,69.3,86.1,70.1,58.2,97,82,40,30.36,30.24,8,2,13,0.00
2013-7-5,88.9,78.0,69.8,87.9,70.2,58.5,97,80,40,30.33,30.18,8,3,13,0.00
2013-7-6,82.8,75.6,68.4,73.9,62.8,55.7,97,67,41,30.24,30.15,8,3,15,0.00
2013-7-7,81.1,71.9,65.8,67.6,60.9,54.2,89,70,41,30.18,30.08,7,2,13,0.00
2013-7-8,73.2,69.1,63.9,70.4,66.2,61.5,92,90,87,30.24,30.08,4,0,6,0.00
2013-7-9,68.5,66.9,63.9,67.1,65.3,61.3,96,95,92,30.30,30.24,4,0,6,0.00
2013-7-10,67.6,65.5,63.5,66.8,64.4,62.2,97,96,95,30.27,29.96,5,0,9,0.00
2013-7-11,68.7,67.7,66.4,67.8,66.8,65.5,97,97,97,29.96,29.93,4,1,6,0.00
2013-7-12,63.3,63.2,63.0,56.9,56.4,56.3,80,79,78,30.39,30.39,0,0,0,0.00
2013-7-13,76.6,68.1,60.8,62.4,57.3,49.2,88,70,41,30.50,30.39,8,1,15,0.00
2013-7-14,83.3,72.9,66.2,67.7,64.1,57.3,94,76,45,30.46,30.35,6,1,14,0.00
2013-7-15,86.4,75.2,67.8,69.1,61.3,53.0,91,65,37,30.36,30.23,6,1,9,0.00
2013-7-16,84.6,76.3,70.0,66.4,60.6,51.0,79,60,32,30.32,30.25,7,1,12,0.00
2013-7-17,88.3,77.1,68.4,67.5,61.1,54.4,83,61,32,30.33,30.10,12,2,18,0.00
2013-7-18,83.8,75.1,72.0,68.9,64.9,55.7,89,72,39,30.20,30.07,8,1,12,0.00
2013-7-19,88.3,78.5,69.8,69.9,64.4,55.0,92,66,36,30.08,29.82,11,3,20,0.00
2013-7-20,82.6,74.0,64.9,66.3,61.0,54.6,83,66,40,29.93,29.76,12,3,18,0.00
2013-7-21,75.9,67.9,60.8,59.6,55.3,46.9,85,66,39,30.16,29.93,10,2,17,0.00
2013-7-22,70.3,65.1,61.9,68.0,62.0,57.7,93,90,80,30.22,30.07,3,0,6,0.00
2013-7-23,67.1,63.0,60.1,66.2,61.7,58.6,97,96,90,30.07,29.70,7,0,10,0.00
2013-7-24,74.5,67.7,55.9,68.4,56.4,43.4,97,71,35,30.13,29.73,15,3,24,0.00
2013-7-25,68.2,60.0,52.3,56.0,48.2,42.7,80,66,45,30.30,30.13,6,0,10,0.00
2013-7-26,68.0,63.0,60.1,61.3,57.8,54.6,93,84,69,30.26,30.10,8,1,13,0.00
2013-7-27,77.0,67.4,60.1,61.1,55.5,41.9,93,69,31,30.20,30.10,10,2,16,0.00
2013-7-28,72.5,66.3,62.1,64.7,61.3,58.1,92,84,69,30.19,30.15,4,0,8,0.00
2013-7-29,76.8,66.4,61.5,66.7,61.2,51.1,96,85,47,30.23,30.12,9,1,14,0.00
2013-7-30,74.3,65.5,60.3,60.5,52.1,40.3,94,66,31,30.26,30.18,11,2,21,0.00
2013-7-31,75.2,65.5,57.6,57.2,50.9,41.1,88,63,31,30.29,30.19,9,1,15,0.00
2013-8-1,74.8,66.1,59.9,62.5,57.0,49.2,91,75,44,30.19,30.03,6,0,12,0.00
2013-8-2,75.9,66.7,61.7,64.8,56.5,42.7,96,74,32,30.03,29.91,8,2,15,0.00
2013-8-3,61.5,60.7,59.5,56.3,54.7,53.2,84,81,77,30.01,29.94,4,0,7,0.00
2013-8-5,70.2,63.2,53.6,38.4,34.8,30.0,56,36,23,30.21,30.06,13,3,18,0.00
2013-8-6,71.8,61.3,52.3,48.8,43.1,38.2,77,53,32,30.33,30.20,9,1,12,0.00
2013-8-7,73.9,63.8,54.9,54.4,46.6,40.9,76,56,33,30.36,30.25,8,1,12,0.00
2013-8-8,76.5,67.1,60.6,64.3,59.7,49.8,91,78,56,30.25,30.15,8,2,17,0.00
2013-8-9,70.7,69.0,67.1,69.8,67.4,64.0,97,95,86,30.16,29.88,7,2,13,0.00
2013-8-10,72.7,66.7,57.2,66.2,49.9,32.6,97,62,24,30.17,29.91,12,3,22,0.00
2013-8-11,72.7,61.7,52.7,50.5,45.3,39.7,81,57,32,30.24,30.17,13,2,20,0.00
2013-8-12,74.5,64.9,57.6,54.7,49.9,42.2,82,61,32,30.17,30.07,7,2,13,0.00
2013-8-13,67.1,63.7,59.5,64.7,59.2,52.9,94,86,72,30.07,29.85,5,0,8,0.00
2013-8-14,64.8,61.8,56.3,63.0,53.5,40.3,95,77,42,30.08,29.79,6,2,12,0.00
2013-8-15,69.6,60.3,53.4,49.4,43.9,36.8,77,57,32,30.27,30.08,9,2,16,0.00
2013-8-16,72.3,62.3,55.2,52.7,47.9,40.6,80,62,33,30.36,30.23,7,1,12,0.00
2013-8-17,74.5,64.2,56.7,57.6,48.7,39.9,85,60,30,30.45,30.35,7,1,14,0.00
2013-8-18,72.3,64.7,57.4,59.2,53.5,48.4,84,69,45,30.45,30.22,7,1,9,0.00
2013-8-19,76.6,67.1,58.1,56.5,52.9,46.0,89,63,35,30.22,30.09,9,2,15,0.00
2013-8-20,78.6,72.4,64.6,58.0,52.7,46.1,72,52,32,30.25,30.12,8,2,12,0.00
2013-8-21,80.6,70.4,63.5,61.2,56.5,49.3,84,64,35,30.28,30.15,8,2,12,0.00
2013-8-22,81.1,71.8,63.0,61.7,56.5,48.2,83,61,32,30.15,29.93,8,2,14,0.00
2013-8-23,72.9,66.9,59.4,59.4,44.9,33.2,72,47,24,30.32,29.95,8,2,12,0.00
2013-8-24,71.8,61.9,53.1,48.7,41.2,36.2,66,48,31,30.49,30.32,7,1,12,0.00
2013-8-25,73.9,63.6,54.5,52.7,46.2,39.2,80,56,30,30.51,30.31,8,1,14,0.00
2013-8-26,73.4,66.2,60.3,62.2,57.9,46.7,92,75,55,30.31,30.03,7,2,12,0.00
2013-8-27,77.0,69.1,63.7,66.5,62.4,55.5,92,80,49,30.06,30.00,5,0,6,0.00
2013-8-28,78.1,69.6,63.0,67.3,62.7,59.7,92,80,56,30.13,30.02,4,0,6,0.00
2013-8-29,63.0,61.8,61.0,61.6,60.3,59.2,96,95,94,30.25,30.20,3,0,6,0.00
2013-8-30,76.5,67.0,60.4,65.3,60.8,55.7,96,82,49,30.20,29.94,7,1,12,0.00
2013-8-31,75.7,70.6,67.3,68.0,64.1,59.3,92,81,61,29.97,29.90,6,1,10,0.00
2013-9-1,77.2,71.5,68.2,70.8,66.5,61.1,96,85,59,30.06,29.90,5,1,9,0.00
2013-9-2,69.3,66.9,65.5,66.9,65.6,64.6,97,96,91,30.02,29.88,3,0,3,0.00
2013-9-3,71.4,66.5,60.8,65.0,61.3,56.1,97,84,63,29.95,29.85,7,2,12,0.00
2013-9-4,72.5,64.5,58.3,57.8,50.2,40.2,88,63,33,30.05,29.91,9,3,17,0.00
2013-9-5,64.0,58.6,48.7,57.0,43.5,28.0,89,61,27,30.31,30.00,9,1,14,0.00
2013-9-6,62.8,53.6,44.1,41.8,34.8,29.2,74,51,31,30.41,30.21,8,2,12,0.00
2013-9-7,70.0,59.9,53.2,47.1,40.6,35.9,65,50,34,30.21,29.98,8,3,15,0.00
2013-9-8,60.1,54.9,46.0,44.9,38.0,31.9,59,53,47,30.25,29.89,5,1,14,0.00
2013-9-9,63.3,53.3,43.2,44.8,36.4,30.4,79,55,31,30.39,30.25,8,2,13,0.00
2013-9-10,64.8,59.4,53.2,63.3,54.5,44.1,95,84,67,30.28,30.18,6,1,9,0.00
2013-9-11,84.6,73.3,64.8,72.7,66.3,59.4,97,81,43,30.24,30.09,9,3,15,0.00
2013-9-12,72.5,68.3,65.8,70.5,65.9,61.4,96,92,81,30.15,29.83,7,2,12,0.00
2013-9-13,66.7,63.0,54.9,65.3,60.5,51.4,97,92,76,29.90,29.73,7,1,13,0.00
2013-9-14,63.0,56.4,49.5,54.1,48.1,41.7,92,76,48,30.22,29.90,8,2,14,0.00
2013-9-15,64.2,54.6,45.3,50.7,43.4,34.9,90,69,35,30.32,30.18,8,2,14,0.00
2013-9-16,60.3,54.2,43.0,53.0,42.4,26.1,91,65,43,30.44,30.14,8,2,13,0.00
2013-9-17,58.5,48.2,38.7,42.4,33.7,27.7,79,59,36,30.61,30.44,8,1,12,0.00
2013-9-18,66.2,54.2,45.5,45.7,39.8,33.2,81,61,31,30.48,30.27,8,2,12,0.00
2013-9-19,70.0,58.6,49.6,51.8,45.0,38.4,83,63,32,30.31,30.20,7,1,12,0.00
2013-9-20,71.1,59.9,51.8,52.8,47.5,43.3,80,65,38,30.27,30.17,7,0,9,0.00
2013-9-21,68.7,60.3,52.0,58.4,50.6,43.2,92,72,43,30.17,29.86,9,3,16,0.00
2013-9-22,65.1,60.2,48.6,62.6,49.3,35.0,95,70,38,29.97,29.73,9,3,16,0.00
2013-9-23,56.1,48.7,43.3,35.7,32.5,29.3,71,54,38,30.15,29.97,9,2,12,0.00
2013-9-24,57.7,48.8,42.1,39.4,34.0,29.0,75,58,37,30.14,29.98,11,2,17,0.00
2013-9-25,57.6,50.4,44.6,45.1,41.1,37.8,84,71,55,30.17,30.04,7,0,8,0.00
2013-9-26,61.5,52.8,45.0,47.2,41.1,35.9,82,66,41,30.32,30.16,6,1,8,0.00
2013-9-27,63.9,56.1,52.5,49.8,45.7,41.2,81,69,46,30.43,30.30,5,1,9,0.00
2013-9-28,66.4,56.7,50.2,52.8,46.4,38.5,87,71,37,30.53,30.43,6,0,8,0.00
2013-9-29,64.4,54.6,47.7,52.1,45.3,40.6,88,72,42,30.43,30.28,5,0,8,0.00
2013-9-30,64.9,53.7,45.7,52.8,45.3,40.8,89,75,46,30.29,30.15,5,0,7,0.00
2013-10-1,68.9,58.1,49.6,56.6,47.9,38.9,93,72,35,30.16,29.99,7,1,9,0.00
2013-10-2,72.0,62.8,56.7,52.1,49.3,42.8,83,63,39,30.08,29.95,9,2,16,0.00
2013-10-3,69.3,60.0,52.5,47.4,42.3,35.5,78,54,29,30.24,30.07,8,1,14,0.00
2013-10-4,64.4,57.1,50.9,49.8,45.7,41.6,78,66,46,30.28,30.20,5,0,7,0.00
2013-10-5,60.6,56.6,53.6,49.9,42.6,35.8,78,60,45,30.31,30.24,0,0,0,0.00
2013-10-6,55.0,49.5,46.8,46.7,38.4,28.7,95,67,46,30.44,30.31,3,0,6,0.00
2013-10-7,65.5,53.4,47.3,64.6,52.0,45.7,97,95,74,30.36,29.90,10,2,16,0.00
2013-10-8,57.4,51.4,43.5,47.4,34.1,26.9,74,53,33,30.57,30.04,9,3,15,0.00
2013-10-9,48.7,44.7,40.8,39.4,34.9,30.3,76,68,61,30.60,30.54,3,0,6,0.00
2013-10-10,60.4,50.9,42.1,46.6,40.6,32.9,83,69,38,30.55,30.34,7,1,9,0.00
2013-10-11,62.8,54.3,48.2,45.7,40.9,35.0,75,62,37,30.38,30.31,3,0,3,0.00
2013-10-12,52.9,51.2,46.6,50.4,46.2,40.9,93,83,70,30.60,30.37,4,0,6,0.00
2013-10-13,52.7,49.0,44.1,46.4,42.9,38.8,90,80,70,30.64,30.57,4,0,7,0.00
2013-10-14,62.6,53.2,45.5,47.6,41.8,37.7,88,67,41,30.57,30.40,7,2,12,0.00
2013-10-15,61.2,56.0,51.6,50.3,47.2,44.0,85,73,54,30.46,30.34,5,0,7,0.00
2013-10-16,57.9,53.6,49.6,49.0,46.3,42.0,86,76,61,30.37,30.07,4,0,7,0.00
2013-10-17,52.0,51.1,50.0,46.2,45.2,43.4,81,80,78,30.07,30.00,4,0,7,0.00
2013-10-18,57.2,51.6,47.3,40.7,37.0,31.4,69,58,43,30.05,29.90,6,1,12,0.00
2013-10-19,60.4,50.7,41.4,39.0,34.3,30.9,75,55,34,30.11,29.88,9,2,14,0.00
2013-10-20,56.3,50.4,44.1,43.6,30.8,20.5,85,50,27,30.14,29.82,14,3,21,0.00
2013-10-21,58.3,48.0,38.7,36.7,31.5,26.3,77,54,35,30.27,30.14,9,1,13,0.00
2013-10-22,52.9,48.0,39.4,47.3,40.1,33.1,86,75,55,30.14,29.86,7,1,12,0.00
2013-10-23,49.3,42.1,36.3,36.4,28.7,23.1,88,61,38,29.93,29.75,8,2,14,0.00
2013-10-24,45.9,41.0,35.4,28.1,22.5,18.4,67,48,37,30.01,29.78,11,3,21,0.00
2013-10-25,43.9,37.3,33.3,28.5,21.9,15.1,77,55,37,30.30,30.00,11,3,17,0.00
2013-10-26,45.0,39.4,32.2,28.7,22.3,19.1,72,52,37,30.29,30.00,9,2,17,0.00
2013-10-27,49.1,42.9,34.5,28.1,23.2,18.2,61,46,33,30.19,29.94,9,3,15,0.00
2013-10-28,49.5,38.7,32.7,28.7,21.4,9.4,73,51,34,30.53,30.19,13,2,28,0.00
2013-10-29,41.7,33.5,28.0,21.2,13.3,9.0,65,44,28,30.64,30.51,9,1,15,0.00
2013-10-30,44.1,36.3,31.1,25.7,19.5,11.9,72,51,39,30.55,30.35,9,2,15,0.00
2013-10-31,56.5,41.7,33.8,55.6,37.0,25.7,97,83,72,30.42,29.89,10,1,16,0.00
2013-11-1,61.9,58.0,55.9,60.5,57.0,55.1,97,97,90,29.89,29.53,12,6,22,0.00
2013-11-2,51.6,49.7,46.9,43.6,39.7,33.4,83,69,50,29.89,29.78,7,1,17,0.00
2013-11-3,46.8,37.8,29.8,40.6,18.6,7.0,79,47,29,30.61,29.89,7,2,12,0.00
2013-11-4,37.6,30.7,25.5,11.0,8.9,6.7,47,40,31,30.90,30.61,6,1,9,0.00
2013-11-5,43.2,34.4,27.1,23.3,15.1,7.9,59,45,36,30.90,30.66,9,1,15,0.00
2013-11-6,52.9,44.7,35.4,37.5,30.4,22.9,70,58,47,30.66,30.14,9,4,15,0.00
2013-11-7,54.7,48.7,37.6,52.6,38.5,16.4,94,69,43,30.14,29.80,10,4,15,0.00
2013-11-8,41.0,35.5,31.5,17.5,15.1,12.0,55,43,34,30.20,29.93,11,4,18,0.00
2013-11-9,38.1,35.0,31.5,17.8,12.8,10.4,47,40,34,30.33,30.17,12,3,16,0.00
2013-11-10,39.2,36.0,32.2,34.1,28.9,16.8,87,76,47,30.20,29.89,7,1,12,0.00
2013-11-11,40.5,36.9,33.1,29.6,20.5,16.7,77,52,41,30.20,29.95,11,4,16,0.00
2013-11-12,40.3,30.3,23.9,25.5,10.5,4.6,57,43,38,30.32,29.98,11,4,17,0.00
2013-11-13,28.4,24.8,20.3,8.1,4.0,1.2,47,40,34,30.45,30.26,9,4,17,0.00
2013-11-14,29.1,28.0,27.1,10.7,9.5,7.6,47,45,43,30.26,30.19,8,4,15,0.00
2013-11-16,43.2,40.2,37.4,16.0,15.2,14.4,41,36,32,30.53,30.49,3,1,7,0.00
2013-11-17,40.6,37.9,34.2,39.3,30.0,15.3,95,76,41,30.52,30.07,4,0,6,0.00
2013-11-18,55.8,48.5,40.5,54.6,36.7,21.5,97,68,38,30.07,29.65,11,3,20,0.00
2013-11-19,42.4,33.3,26.8,22.0,10.6,4.8,48,39,32,30.43,29.74,13,5,23,0.00
2013-11-20,36.1,29.2,24.4,8.6,6.6,4.3,45,38,30,30.82,30.43,11,2,15,0.00
2013-11-21,38.8,30.4,24.6,11.8,7.6,3.8,49,38,23,30.81,30.53,5,1,12,0.00
2013-11-22,37.0,35.6,32.2,35.5,25.7,12.2,94,69,41,30.53,29.92,6,1,10,0.00
2013-11-23,37.8,32.6,23.5,37.0,18.8,7.4,97,60,34,30.06,29.88,15,4,23,0.00
2013-11-24,23.4,17.8,13.1,7.5,-2.7,-8.3,51,40,35,30.29,29.91,14,6,22,0.00
2013-11-25,25.5,18.7,11.7,5.0,-4.4,-9.6,41,35,30,30.51,30.29,14,4,28,0.00
2013-11-26,31.5,28.2,25.2,25.1,18.1,5.4,83,67,42,30.51,30.28,7,2,15,0.00
2013-11-27,43.3,34.8,29.7,42.5,32.8,22.8,97,92,70,30.28,29.37,7,2,13,0.00
2013-11-28,32.5,24.1,-3.1,23.1,4.7,-23.5,70,44,33,30.59,29.50,12,5,23,0.00
2013-11-29,25.3,19.3,15.3,1.3,-1.0,-2.9,47,40,32,30.93,30.58,11,2,17,0.00
2013-11-30,15.6,14.0,12.7,-1.5,-3.1,-4.2,46,46,45,30.97,30.93,3,0,6,0.00
2013-12-2,35.2,34.9,34.5,33.2,33.0,32.6,93,93,92,30.16,30.11,4,0,6,0.00
2013-12-3,39.9,34.1,30.2,37.2,31.0,25.1,92,88,81,30.12,30.02,6,0,8,0.00
2013-12-4,36.1,31.8,26.6,25.2,18.5,15.3,81,58,47,30.37,30.08,8,2,13,0.00
2013-12-5,37.4,32.4,29.7,35.3,25.5,18.6,92,76,62,30.43,30.05,3,0,5,0.00
2013-12-6,42.4,38.9,33.3,41.6,29.1,13.1,97,72,40,30.29,30.02,8,2,14,0.00
2013-12-7,33.3,29.8,24.1,25.0,11.0,0.9,74,47,34,30.60,30.23,13,3,21,0.00
2013-12-8,26.8,23.8,20.3,4.8,1.9,-0.6,43,38,34,30.74,30.59,7,1,12,0.00
2013-12-9,26.6,22.4,19.4,21.4,12.1,3.5,81,66,43,30.70,30.02,6,2,9,0.00
2013-12-10,30.6,26.3,17.6,25.9,18.8,3.0,90,74,48,30.08,29.92,9,2,13,0.00
2013-12-11,25.5,20.7,14.4,11.3,4.7,1.9,65,50,40,30.31,30.08,13,2,20,0.00
2013-12-12,19.9,13.3,9.5,8.6,0.6,-8.1,61,57,44,30.41,30.18,10,2,16,0.00
2013-12-13,21.6,12.7,4.5,4.1,-4.0,-16.3,60,48,35,30.58,30.09,10,2,20,0.00
2013-12-14,12.2,6.7,1.6,-8.6,-13.6,-18.4,38,38,38,30.81,30.53,6,1,8,0.08
2013-12-15,23.2,15.1,6.3,1.3,-6.0,-14.0,38,38,38,30.53,29.65,11,4,17,0.00
2013-12-16,21.2,16.2,6.6,5.3,-4.7,-14.7,58,39,35,30.36,29.85,10,3,20,0.00
2013-12-17,11.8,5.8,-1.3,-9.5,-14.9,-21.3,37,37,37,30.48,30.22,4,1,9,0.04
2013-12-18,29.3,21.0,11.8,13.1,2.9,-9.5,68,46,37,30.22,30.03,12,2,20,0.00
2013-12-19,32.2,27.2,21.7,19.6,15.4,12.3,75,61,46,30.25,30.10,8,1,12,0.00
2013-12-20,36.7,33.5,30.4,28.1,24.2,19.6,77,68,57,30.28,30.06,4,0,7,0.00
2013-12-21,35.6,35.1,33.6,32.2,31.0,27.6,88,85,75,30.09,30.05,4,0,6,0.00
2013-12-22,35.6,35.6,35.6,32.1,32.1,32.1,87,87,87,30.08,30.08,0,0,0,0.00
2013-12-23,35.6,35.6,35.6,32.1,32.1,32.1,87,87,87,30.08,30.08,0,0,0,0.00
2013-12-24,27.3,22.8,13.6,14.6,9.1,-1.3,61,55,50,30.37,30.22,0,0,0,0.00
2013-12-25,16.0,10.8,5.0,99.9,-2.1,-8.8,56,52,46,30.75,30.37,0,0,0,0.00
2013-12-26,21.0,17.4,12.2,99.9,10.0,-0.5,79,68,56,30.70,30.28,0,0,0,0.00
2013-12-27,29.7,22.5,18.0,16.9,12.9,9.7,79,67,49,30.40,30.33,8,0,10,0.00
2013-12-28,34.3,27.6,18.3,26.9,19.1,9.0,80,70,60,30.36,30.14,7,1,15,0.00
2013-12-29,36.0,32.1,29.3,31.1,28.1,24.1,94,85,78,30.19,29.72,3,0,3,0.00
2013-12-30,33.6,24.5,6.1,31.8,15.0,-9.4,94,69,45,30.34,29.68,9,0,15,0.00
2013-12-31,11.7,6.3,0.5,-4.3,-9.2,-14.6,48,48,48,30.35,30.22,0,0,0,0.00
2014-1-1,17.2,10.6,5.5,-0.6,-5.8,-9.9,50,47,44,30.58,30.31,3,0,15,0.00
2014-1-2,11.7,2.4,-5.4,99.9,-12.9,-20.9,46,46,46,30.57,30.15,0,0,7,0.00